RJTY/OKO METAR and TAF weather

Enter ICAO airport designator
Station Type Date Time Source
RJTY METAR 2020/04/09 11:38 UTC NOAA

RJTY 091138Z AUTO 02006KT 10SM -RA SCT018 OVC026 09/06 A3012 RMK AO2 RAB23E27DZB27E28RAB28 CIG 019V026 CIG 013 RWY18 SLP205 FZRANO $


Station Type Date Time Source
RJTY Decoded METAR 2020/04/09 11:38 UTC NOAA

Yokota Ab, Japan (RJTY) 35-45N 139-21E 142M
Apr 09, 2020 - 07:38 AM EDT / 2020.04.09 1138 UTC
Wind: from the NNE (020 degrees) at 7 MPH (6 KT):0
Visibility: 10 mile(s):0
Sky conditions: overcast
Weather: light rain
Temperature: 48 F (9 C)
Dew Point: 42 F (6 C)
Relative Humidity: 81%
Pressure (altimeter): 30.12 in. Hg (1019 hPa)
ob: RJTY 091138Z AUTO 02006KT 10SM -RA SCT018 OVC026 09/06 A3012 RMK AO2 RAB23E27DZB27E28RAB28 CIG 019V026 CIG 013 RWY18 SLP205 FZRANO
cycle: 11

Station Type Date Time Source
RJTY TAF 2020/04/09 11:18 UTC NOAA

TAF TAF
AMD RJTY 091115Z 0911/1011 05012KT 9999 BKN015 QNH2994INS
TEMPO 0911/0912 05020G25KT
BECMG 0912/0913 09009KT 9999 VCSH BKN030 BKN100 QNH2995INS
TEMPO 0913/0916 8000 -SHRA BKN020
BECMG 0919/0920 VRB06KT 9999 NSW SCT030 BKN080 QNH3002INS TX23/1005Z TN06/0921Z

Example: see airport list